Terminal Aerodrome Forecast
Issued by NWS

Home | Current Version | Previous Version | Text Only | Print | Product List | Glossary Off
Versions: 1 2 3 4 5 6 7 8 9 10 11 12 13 14 15 16 17 18 19 20 21

531
FTUS43 KGRB 162332
TAFMTW
TAF
KMTW 162332Z 1700/1724 11005KT 2SM -RA BR OVC008
      TEMPO 1700/1703 1SM -FZRA BR BKN005
     FM170300 08008G15KT 1 1/2SM -RA BR OVC005
     FM170800 04008G15KT 1 1/2SM -RA BR OVC003
     FM171500 36008G15KT 2SM -RA BR OVC010
     FM172000 33007KT P6SM BKN030=

USA.gov is the U.S. government's official web portal to all federal, state and local government web resources and services.